createdAt,value
2022-12-04T00:01:26.682Z,0.38
2022-12-04T00:03:57.026Z,0.38
2022-12-04T00:06:25.496Z,0.37
2022-12-04T00:08:54.402Z,0.39
2022-12-04T00:11:26.979Z,0.33
2022-12-04T00:13:55.325Z,0.34
2022-12-04T00:16:26.961Z,0.37
2022-12-04T00:18:54.716Z,0.39
2022-12-04T00:21:24.920Z,0.39
2022-12-04T00:23:53.749Z,0.35
2022-12-04T00:26:26.107Z,0.36
2022-12-04T00:28:54.995Z,0.35
2022-12-04T00:31:28.521Z,0.33
2022-12-04T00:33:55.814Z,0.34
2022-12-04T00:36:26.719Z,0.35
2022-12-04T00:38:54.520Z,0.35
2022-12-04T00:41:25.795Z,0.37
2022-12-04T00:43:53.202Z,0.30
2022-12-04T00:46:21.479Z,0.32
2022-12-04T00:48:48.895Z,0.30
2022-12-04T00:51:25.295Z,0.33
2022-12-04T00:53:52.923Z,0.32
2022-12-04T00:56:26.006Z,0.37
2022-12-04T00:58:56.878Z,0.37
2022-12-04T01:01:26.415Z,0.34
2022-12-04T01:03:55.613Z,0.34
2022-12-04T01:06:33.797Z,0.33
2022-12-04T01:09:04.125Z,0.35
2022-12-04T01:11:31.995Z,0.34
2022-12-04T01:14:01.014Z,0.37
2022-12-04T01:16:36.538Z,0.38
2022-12-04T01:19:07.859Z,0.39
2022-12-04T01:21:36.637Z,0.39
2022-12-04T01:24:05.352Z,0.39
2022-12-04T01:26:32.872Z,0.36
2022-12-04T01:29:01.288Z,0.37
2022-12-04T01:31:28.509Z,0.37
2022-12-04T01:33:56.066Z,0.36
2022-12-04T01:36:28.358Z,0.36
2022-12-04T01:38:56.848Z,0.38
2022-12-04T01:41:32.024Z,0.35
2022-12-04T01:44:25.998Z,0.40
2022-12-04T01:46:56.829Z,0.37
2022-12-04T01:49:37.386Z,0.35
2022-12-04T01:52:15.622Z,0.35
2022-12-04T01:54:50.967Z,0.30
2022-12-04T01:57:23.356Z,0.32
2022-12-04T02:00:08.114Z,0.30
2022-12-04T02:02:40.019Z,0.33
2022-12-04T02:05:13.111Z,0.35
2022-12-04T02:07:45.280Z,0.29
2022-12-04T02:10:14.369Z,0.30
2022-12-04T02:13:05.218Z,0.23
2022-12-04T02:16:02.967Z,0.27
2022-12-04T02:19:00.505Z,0.29
2022-12-04T02:21:40.891Z,0.23
2022-12-04T02:24:53.285Z,0.26
2022-12-04T02:27:41.186Z,0.27
2022-12-04T02:30:13.076Z,0.30
2022-12-04T02:32:58.723Z,0.28
2022-12-04T02:35:30.672Z,0.31
2022-12-04T02:38:10.361Z,0.33
2022-12-04T02:40:54.482Z,0.29
2022-12-04T02:43:32.824Z,0.32
2022-12-04T02:46:11.260Z,0.29
2022-12-04T02:48:43.023Z,0.26
2022-12-04T02:51:14.900Z,0.27
2022-12-04T02:53:50.494Z,0.30
2022-12-04T02:56:26.515Z,0.28
2022-12-04T02:59:03.898Z,0.29
2022-12-04T03:01:40.112Z,0.26
2022-12-04T03:04:20.755Z,0.25
2022-12-04T03:06:56.050Z,0.29
2022-12-04T03:09:37.942Z,0.32
2022-12-04T03:12:16.562Z,0.32
2022-12-04T03:14:55.117Z,0.29
2022-12-04T03:17:37.488Z,0.32
2022-12-04T03:20:15.374Z,0.29
2022-12-04T03:22:50.342Z,0.32
2022-12-04T03:25:17.700Z,0.31
2022-12-04T03:28:00.394Z,0.38
2022-12-04T03:30:39.288Z,0.37
2022-12-04T03:33:13.593Z,0.32
2022-12-04T03:35:58.278Z,0.32
2022-12-04T03:38:42.332Z,0.32
2022-12-04T03:41:49.789Z,0.35
2022-12-04T03:44:24.403Z,0.32
2022-12-04T03:47:02.465Z,0.28
2022-12-04T03:49:44.595Z,0.29
2022-12-04T03:52:23.667Z,0.27
2022-12-04T03:55:01.943Z,0.29
2022-12-04T03:57:38.544Z,0.35
2022-12-04T04:00:16.467Z,0.35
2022-12-04T04:03:01.072Z,0.33
2022-12-04T04:05:31.646Z,0.33
2022-12-04T04:08:22.893Z,0.30
2022-12-04T04:10:53.107Z,0.32
2022-12-04T04:13:53.882Z,0.33
2022-12-04T04:16:44.887Z,0.34
2022-12-04T04:19:35.075Z,0.38
2022-12-04T04:22:28.012Z,0.34
2022-12-04T04:25:18.063Z,0.33
2022-12-04T04:27:53.757Z,0.35
2022-12-04T04:30:22.235Z,0.37
2022-12-04T04:33:02.992Z,0.40
2022-12-04T04:35:42.980Z,0.37
2022-12-04T04:38:28.419Z,0.34
2022-12-04T04:41:13.564Z,0.32
2022-12-04T04:43:59.625Z,0.35
2022-12-04T04:46:41.276Z,0.33
2022-12-04T04:49:14.644Z,0.32
2022-12-04T04:51:44.202Z,0.38
2022-12-04T04:54:16.649Z,0.38
2022-12-04T04:56:47.394Z,0.34
2022-12-04T04:59:16.179Z,0.33
2022-12-04T05:01:46.832Z,0.35
2022-12-04T05:04:14.283Z,0.34
2022-12-04T05:06:41.496Z,0.33
2022-12-04T05:09:08.613Z,0.36
2022-12-04T05:11:35.798Z,0.33
2022-12-04T05:14:03.021Z,0.37
2022-12-04T05:16:31.061Z,0.37
2022-12-04T05:19:17.632Z,0.38
2022-12-04T05:21:44.648Z,0.39
2022-12-04T05:24:11.760Z,0.37
2022-12-04T05:26:44.731Z,0.40
2022-12-04T05:29:11.832Z,0.37
2022-12-04T05:31:39.083Z,0.38
2022-12-04T05:34:06.254Z,0.39
2022-12-04T05:36:33.337Z,0.36
2022-12-04T05:39:00.407Z,0.35
2022-12-04T05:41:27.568Z,0.35
2022-12-04T05:43:54.550Z,0.36
2022-12-04T05:46:21.619Z,0.39
2022-12-04T05:48:48.721Z,0.34
2022-12-04T05:51:15.808Z,0.34
2022-12-04T05:53:42.980Z,0.34
2022-12-04T05:56:10.713Z,0.33
2022-12-04T05:58:44.572Z,0.36
2022-12-04T06:01:23.995Z,0.33
2022-12-04T06:03:51.162Z,0.33
2022-12-04T06:06:25.309Z,0.35
2022-12-04T06:08:56.318Z,0.34
2022-12-04T06:11:31.264Z,0.36
2022-12-04T06:14:01.303Z,0.35
2022-12-04T06:16:33.394Z,0.34
2022-12-04T06:19:07.460Z,0.33
2022-12-04T06:21:38.776Z,0.36
2022-12-04T06:24:10.591Z,0.38
2022-12-04T06:26:43.979Z,0.37
2022-12-04T06:29:26.064Z,0.37
2022-12-04T06:31:53.423Z,0.36
2022-12-04T06:34:20.466Z,0.37
2022-12-04T06:36:47.449Z,0.36
2022-12-04T06:39:18.714Z,0.34
2022-12-04T06:41:50.266Z,0.35
2022-12-04T06:44:17.395Z,0.32
2022-12-04T06:46:47.136Z,0.34
2022-12-04T06:49:14.796Z,0.34
2022-12-04T06:51:42.195Z,0.35
2022-12-04T06:54:10.484Z,0.35
2022-12-04T06:56:37.477Z,0.36
2022-12-04T06:59:05.188Z,0.35
2022-12-04T07:01:34.956Z,0.36
2022-12-04T07:04:04.320Z,0.41
2022-12-04T07:06:35.687Z,0.41
2022-12-04T07:09:17.637Z,0.46
2022-12-04T07:11:45.753Z,0.42
2022-12-04T07:14:14.439Z,0.42
2022-12-04T07:16:42.939Z,0.42
2022-12-04T07:19:13.618Z,0.44
2022-12-04T07:21:42.063Z,0.43
2022-12-04T07:24:16.449Z,0.40
2022-12-04T07:26:44.677Z,0.43
2022-12-04T07:29:12.030Z,0.46
2022-12-04T07:31:39.345Z,0.51
2022-12-04T07:34:06.503Z,0.69
2022-12-04T07:36:34.565Z,0.76
2022-12-04T07:39:01.867Z,0.91
2022-12-04T07:41:29.111Z,1.10
2022-12-04T07:43:56.017Z,1.36
2022-12-04T07:46:27.355Z,1.44
2022-12-04T07:48:59.352Z,1.46
2022-12-04T07:51:29.309Z,1.51
2022-12-04T07:54:03.745Z,1.55
2022-12-04T07:56:33.567Z,1.57
2022-12-04T07:59:01.829Z,1.54
2022-12-04T08:01:29.186Z,1.51
2022-12-04T08:03:58.960Z,1.44
2022-12-04T08:06:29.597Z,1.39
2022-12-04T08:08:57.451Z,1.38
2022-12-04T08:11:27.162Z,1.30
2022-12-04T08:14:01.086Z,1.30
2022-12-04T08:16:30.720Z,1.33
2022-12-04T08:18:59.374Z,1.36
2022-12-04T08:21:29.988Z,1.47
2022-12-04T08:23:59.364Z,1.49
2022-12-04T08:26:29.865Z,1.58
2022-12-04T08:28:58.235Z,1.69
2022-12-04T08:31:29.167Z,1.68
2022-12-04T08:33:59.090Z,1.54
2022-12-04T08:36:26.953Z,1.39
2022-12-04T08:38:55.678Z,1.30
2022-12-04T08:41:26.086Z,1.19
2022-12-04T08:43:55.830Z,1.15
2022-12-04T08:46:25.014Z,1.14
2022-12-04T08:48:54.201Z,1.06
2022-12-04T08:51:25.707Z,1.08
2022-12-04T08:53:58.942Z,1.02
2022-12-04T08:56:28.796Z,1.01
2022-12-04T08:58:57.694Z,1.00
2022-12-04T09:01:26.108Z,0.97
2022-12-04T09:03:53.695Z,0.95
2022-12-04T09:06:22.155Z,0.92
2022-12-04T09:08:54.569Z,0.92
2022-12-04T09:11:25.921Z,0.90
2022-12-04T09:13:54.450Z,0.89
2022-12-04T09:16:23.993Z,0.88
2022-12-04T09:18:51.763Z,0.83
2022-12-04T09:21:22.050Z,0.87
2022-12-04T09:23:49.741Z,0.86
2022-12-04T09:26:24.190Z,0.85
2022-12-04T09:28:53.486Z,0.83
2022-12-04T09:31:22.972Z,0.83
2022-12-04T09:33:50.704Z,0.89
2022-12-04T09:36:18.051Z,0.85
2022-12-04T09:38:48.864Z,0.88
2022-12-04T09:41:31.909Z,0.93
2022-12-04T09:44:10.491Z,0.90
2022-12-04T09:47:05.044Z,0.87
2022-12-04T09:49:43.135Z,0.85
2022-12-04T09:52:26.750Z,0.85
2022-12-04T09:54:55.927Z,0.87
2022-12-04T09:57:37.607Z,0.87
2022-12-04T10:00:07.239Z,0.86
2022-12-04T10:02:41.561Z,0.85
2022-12-04T10:05:20.166Z,0.88
2022-12-04T10:08:20.492Z,0.92
2022-12-04T10:11:32.875Z,0.93
2022-12-04T10:14:26.386Z,0.99
2022-12-04T10:17:12.514Z,0.92
2022-12-04T10:20:21.558Z,0.95
2022-12-04T10:23:17.949Z,0.95
2022-12-04T10:25:45.014Z,0.91
2022-12-04T10:28:36.752Z,0.92
2022-12-04T10:31:10.524Z,0.92
2022-12-04T10:34:16.405Z,0.97
2022-12-04T10:36:53.407Z,1.00
2022-12-04T10:39:34.478Z,1.03
2022-12-04T10:42:13.186Z,1.05
2022-12-04T10:44:40.316Z,1.06
2022-12-04T10:47:13.504Z,1.04
2022-12-04T10:49:40.680Z,1.05
2022-12-04T10:52:12.863Z,1.07
2022-12-04T10:54:58.632Z,1.08
2022-12-04T10:57:43.475Z,1.10
2022-12-04T11:00:24.498Z,1.10
2022-12-04T11:02:53.580Z,1.09
2022-12-04T11:05:43.366Z,1.13
2022-12-04T11:08:26.741Z,1.09
2022-12-04T11:11:02.444Z,1.12
2022-12-04T11:13:30.068Z,1.16
2022-12-04T11:15:59.635Z,1.16
2022-12-04T11:18:31.158Z,1.18
2022-12-04T11:21:14.096Z,1.19
2022-12-04T11:23:51.218Z,1.20
2022-12-04T11:26:41.810Z,1.24
2022-12-04T11:29:17.643Z,1.26
2022-12-04T11:31:55.639Z,1.31
2022-12-04T11:34:34.671Z,1.31
2022-12-04T11:37:02.726Z,1.26
2022-12-04T11:39:41.470Z,1.33
2022-12-04T11:42:23.619Z,1.36
2022-12-04T11:45:20.356Z,1.34
2022-12-04T11:48:00.262Z,1.35
2022-12-04T11:50:44.318Z,1.37
2022-12-04T11:53:42.352Z,1.39
2022-12-04T11:56:45.470Z,1.39
2022-12-04T11:59:38.935Z,1.38
2022-12-04T12:02:52.129Z,1.36
2022-12-04T12:06:12.308Z,1.42
2022-12-04T12:09:09.961Z,1.44
2022-12-04T12:12:20.919Z,1.47
2022-12-04T12:15:11.338Z,1.47
2022-12-04T12:18:20.934Z,1.47
2022-12-04T12:21:53.325Z,1.48
2022-12-04T12:24:26.374Z,1.49
2022-12-04T12:27:41.647Z,1.51
2022-12-04T12:30:22.227Z,1.55
2022-12-04T12:33:10.092Z,1.57
2022-12-04T12:35:49.336Z,1.55
2022-12-04T12:38:33.190Z,1.55
2022-12-04T12:41:30.688Z,1.57
2022-12-04T12:44:50.120Z,1.53
2022-12-04T12:47:23.707Z,1.49
2022-12-04T12:50:10.794Z,1.55
2022-12-04T12:52:56.071Z,1.56
2022-12-04T12:55:30.724Z,1.63
2022-12-04T12:58:24.394Z,1.64
2022-12-04T13:01:30.310Z,1.60
2022-12-04T13:04:08.691Z,1.57
2022-12-04T13:06:40.390Z,1.60
2022-12-04T13:09:29.882Z,1.63
2022-12-04T13:12:05.859Z,1.59
2022-12-04T13:14:32.965Z,1.64
2022-12-04T13:17:24.803Z,1.60
2022-12-04T13:19:57.272Z,1.60
2022-12-04T13:23:03.713Z,1.59
2022-12-04T13:25:47.368Z,1.60
2022-12-04T13:28:41.084Z,1.59
2022-12-04T13:31:51.954Z,1.60
2022-12-04T13:34:33.318Z,1.57
2022-12-04T13:37:08.699Z,1.56
2022-12-04T13:40:10.445Z,1.59
2022-12-04T13:42:37.688Z,1.57
2022-12-04T13:45:22.612Z,1.54
2022-12-04T13:48:02.777Z,1.56
2022-12-04T13:50:40.462Z,1.61
2022-12-04T13:53:33.140Z,1.62
2022-12-04T13:56:05.996Z,1.62
2022-12-04T13:58:36.394Z,1.63
2022-12-04T14:01:28.865Z,1.63
2022-12-04T14:03:57.532Z,1.66
2022-12-04T14:06:33.900Z,1.68
2022-12-04T14:09:07.707Z,1.72
2022-12-04T14:11:46.469Z,1.64
2022-12-04T14:14:34.800Z,1.67
2022-12-04T14:17:05.074Z,1.65
2022-12-04T14:19:38.401Z,1.66
2022-12-04T14:22:05.516Z,1.67
2022-12-04T14:24:39.820Z,1.64
2022-12-04T14:27:53.463Z,1.65
2022-12-04T14:30:38.310Z,1.73
2022-12-04T14:33:20.511Z,1.66
2022-12-04T14:36:19.427Z,1.63
2022-12-04T14:38:56.237Z,1.69
2022-12-04T14:41:26.662Z,1.71
2022-12-04T14:43:55.399Z,1.69
2022-12-04T14:46:37.914Z,1.65
2022-12-04T14:49:27.191Z,1.65
2022-12-04T14:52:25.534Z,1.65
2022-12-04T14:55:23.824Z,1.64
2022-12-04T14:58:00.626Z,1.66
2022-12-04T15:00:28.674Z,1.67
2022-12-04T15:03:00.099Z,1.68
2022-12-04T15:05:31.906Z,1.70
2022-12-04T15:08:05.101Z,1.69
2022-12-04T15:10:53.960Z,1.70
2022-12-04T15:13:33.789Z,1.69
2022-12-04T15:16:21.551Z,1.72
2022-12-04T15:19:00.480Z,1.72
2022-12-04T15:21:41.043Z,1.77
2022-12-04T15:24:24.347Z,1.80
2022-12-04T15:26:54.217Z,1.74
2022-12-04T15:29:30.476Z,1.78
2022-12-04T15:32:07.793Z,1.78
2022-12-04T15:34:47.376Z,1.74
2022-12-04T15:37:28.592Z,1.74
2022-12-04T15:39:58.399Z,1.74
2022-12-04T15:42:30.174Z,1.75
2022-12-04T15:45:21.147Z,1.71
2022-12-04T15:47:48.138Z,1.74
2022-12-04T15:50:16.109Z,1.85
2022-12-04T15:53:12.786Z,1.79
2022-12-04T15:55:55.329Z,1.77
2022-12-04T15:58:31.882Z,1.82
2022-12-04T16:01:04.732Z,1.80
2022-12-04T16:03:49.120Z,1.84
2022-12-04T16:06:22.171Z,1.82
2022-12-04T16:08:54.327Z,1.82
2022-12-04T16:11:21.472Z,1.79
2022-12-04T16:14:05.177Z,1.79
2022-12-04T16:16:32.454Z,1.83
2022-12-04T16:19:05.636Z,1.86
2022-12-04T16:21:32.761Z,1.86
2022-12-04T16:24:07.814Z,1.85
2022-12-04T16:26:34.840Z,1.80
2022-12-04T16:29:01.755Z,1.84
2022-12-04T16:31:30.855Z,1.84
2022-12-04T16:33:57.998Z,1.82
2022-12-04T16:36:25.131Z,1.85
2022-12-04T16:38:52.215Z,1.88
2022-12-04T16:41:20.464Z,1.81
2022-12-04T16:43:56.088Z,1.81
2022-12-04T16:46:27.866Z,1.88
2022-12-04T16:48:55.570Z,1.84
2022-12-04T16:51:26.714Z,1.78
2022-12-04T16:53:56.138Z,1.80
2022-12-04T16:56:24.383Z,1.78
2022-12-04T16:58:52.364Z,1.84
2022-12-04T17:01:28.527Z,1.80
2022-12-04T17:03:55.658Z,1.86
2022-12-04T17:06:22.948Z,1.82
2022-12-04T17:08:51.514Z,1.77
2022-12-04T17:11:18.870Z,1.73
2022-12-04T17:13:46.030Z,1.79
2022-12-04T17:16:19.589Z,1.73
2022-12-04T17:18:47.211Z,1.71
2022-12-04T17:21:14.790Z,1.71
2022-12-04T17:23:42.296Z,1.73
2022-12-04T17:26:14.013Z,1.73
2022-12-04T17:28:42.689Z,1.67
2022-12-04T17:31:20.469Z,1.69
2022-12-04T17:33:48.543Z,1.67
2022-12-04T17:36:22.516Z,1.64
2022-12-04T17:38:56.651Z,1.67
2022-12-04T17:41:24.154Z,1.64
2022-12-04T17:43:51.270Z,1.72
2022-12-04T17:46:22.887Z,1.66
2022-12-04T17:48:50.703Z,1.62
2022-12-04T17:51:22.448Z,1.62
2022-12-04T17:53:50.635Z,1.62
2022-12-04T17:56:24.031Z,1.59
2022-12-04T17:58:51.936Z,1.54
2022-12-04T18:01:26.744Z,1.57
2022-12-04T18:03:58.251Z,1.61
2022-12-04T18:06:32.614Z,1.60
2022-12-04T18:09:00.616Z,1.61
2022-12-04T18:11:31.070Z,1.64
2022-12-04T18:14:11.907Z,1.65
2022-12-04T18:16:45.061Z,1.64
2022-12-04T18:19:14.698Z,1.63
2022-12-04T18:21:42.028Z,1.64
2022-12-04T18:24:09.803Z,1.66
2022-12-04T18:26:44.155Z,1.62
2022-12-04T18:29:14.989Z,1.65
2022-12-04T18:31:42.532Z,1.65
2022-12-04T18:34:10.450Z,1.68
2022-12-04T18:36:39.846Z,1.80
2022-12-04T18:39:12.357Z,1.72
2022-12-04T18:41:43.215Z,1.72
2022-12-04T18:44:11.058Z,1.69
2022-12-04T18:46:38.424Z,1.72
2022-12-04T18:49:09.143Z,1.66
2022-12-04T18:51:40.445Z,1.68
2022-12-04T18:54:15.014Z,1.68
2022-12-04T18:56:43.135Z,1.69
2022-12-04T18:59:14.920Z,1.69
2022-12-04T19:04:13.652Z,1.75
2022-12-04T19:06:44.919Z,1.70
2022-12-04T19:10:02.567Z,1.72
2022-12-04T19:12:16.915Z,1.72
2022-12-04T19:14:43.884Z,1.70
2022-12-04T19:17:11.622Z,1.70
2022-12-04T19:19:38.740Z,1.67
2022-12-04T19:22:07.341Z,1.69
2022-12-04T19:24:34.420Z,1.73
2022-12-04T19:27:09.830Z,1.73
2022-12-04T19:29:40.130Z,1.74
2022-12-04T19:32:09.024Z,1.77
2022-12-04T19:34:36.383Z,1.70
2022-12-04T19:37:03.482Z,1.77
2022-12-04T19:39:31.548Z,1.75
2022-12-04T19:41:58.597Z,1.74
2022-12-04T19:44:47.851Z,1.70
2022-12-04T19:47:12.782Z,1.67
2022-12-04T19:49:39.950Z,1.65
2022-12-04T19:52:07.327Z,1.70
2022-12-04T19:54:34.419Z,1.65
2022-12-04T19:57:01.652Z,1.70
2022-12-04T19:59:34.573Z,1.74
2022-12-04T20:02:05.015Z,1.69
2022-12-04T20:04:32.390Z,1.70
2022-12-04T20:06:59.322Z,1.71
2022-12-04T20:09:27.445Z,1.64
2022-12-04T20:11:54.625Z,1.64
2022-12-04T20:14:22.906Z,1.67
2022-12-04T20:16:51.227Z,1.68
2022-12-04T20:19:20.079Z,1.66
2022-12-04T20:21:47.589Z,1.65
2022-12-04T20:24:17.179Z,1.62
2022-12-04T20:26:46.122Z,1.72
2022-12-04T20:29:17.250Z,1.74
2022-12-04T20:31:50.303Z,1.65
2022-12-04T20:34:19.893Z,1.65
2022-12-04T20:36:49.057Z,1.72
2022-12-04T20:39:18.627Z,1.64
2022-12-04T20:41:46.746Z,1.63
2022-12-04T20:44:18.048Z,1.71
2022-12-04T20:46:46.002Z,1.68
2022-12-04T20:49:21.675Z,1.65
2022-12-04T20:51:55.249Z,1.72
2022-12-04T20:54:23.463Z,1.73
2022-12-04T20:56:53.281Z,1.71
2022-12-04T20:59:23.720Z,1.72
2022-12-04T21:01:52.027Z,1.70
2022-12-04T21:04:19.758Z,1.72
2022-12-04T21:06:48.210Z,1.73
2022-12-04T21:09:20.233Z,1.73
2022-12-04T21:11:51.820Z,1.76
2022-12-04T21:14:49.767Z,1.76
2022-12-04T21:17:19.609Z,1.74
2022-12-04T21:19:50.412Z,1.77
2022-12-04T21:22:19.642Z,1.73
2022-12-04T21:24:47.840Z,1.78
2022-12-04T21:27:20.704Z,1.77
2022-12-04T21:29:48.992Z,1.83
2022-12-04T21:32:17.290Z,1.78
2022-12-04T21:34:44.409Z,1.79
2022-12-04T21:37:11.454Z,1.79
2022-12-04T21:39:39.067Z,1.80
2022-12-04T21:42:25.986Z,1.88
2022-12-04T21:44:53.025Z,1.79
2022-12-04T21:47:20.135Z,1.81
2022-12-04T21:49:47.662Z,1.77
2022-12-04T21:52:19.254Z,1.77
2022-12-04T21:54:53.345Z,1.77
2022-12-04T21:57:22.466Z,1.77
2022-12-04T21:59:52.175Z,1.88
2022-12-04T22:02:19.538Z,1.86
2022-12-04T22:04:47.009Z,1.84
2022-12-04T22:07:14.131Z,1.86
2022-12-04T22:09:41.354Z,1.88
2022-12-04T22:12:33.324Z,1.95
2022-12-04T22:14:55.411Z,1.94
2022-12-04T22:17:22.469Z,1.92
2022-12-04T22:19:49.573Z,1.92
2022-12-04T22:22:16.583Z,1.92
2022-12-04T22:24:43.574Z,1.90
2022-12-04T22:27:15.055Z,1.97
2022-12-04T22:29:51.221Z,1.94
2022-12-04T22:32:20.185Z,1.96
2022-12-04T22:34:51.250Z,1.97
2022-12-04T22:37:20.266Z,1.98
2022-12-04T22:39:49.233Z,1.97
2022-12-04T22:42:16.298Z,1.93
2022-12-04T22:44:43.397Z,2.01
2022-12-04T22:47:10.433Z,2.04
2022-12-04T22:49:37.524Z,2.00
2022-12-04T22:52:04.889Z,2.00
2022-12-04T22:54:32.231Z,2.05
2022-12-04T22:56:59.353Z,2.04
2022-12-04T22:59:27.361Z,2.06
2022-12-04T23:01:54.364Z,2.03
2022-12-04T23:04:21.411Z,2.08
2022-12-04T23:06:48.418Z,2.09
2022-12-04T23:09:17.766Z,2.09
2022-12-04T23:11:45.691Z,2.05
2022-12-04T23:14:15.409Z,2.12
2022-12-04T23:16:43.179Z,2.11
2022-12-04T23:19:14.846Z,2.13
2022-12-04T23:21:42.615Z,2.12
2022-12-04T23:24:11.402Z,2.16
2022-12-04T23:26:45.627Z,2.15
2022-12-04T23:29:37.056Z,2.14
2022-12-04T23:32:01.440Z,2.12
2022-12-04T23:34:28.521Z,2.13
2022-12-04T23:36:58.873Z,2.19
2022-12-04T23:39:25.810Z,2.18
2022-12-04T23:41:52.821Z,2.23
2022-12-04T23:44:21.105Z,2.26
2022-12-04T23:46:48.242Z,2.24
2022-12-04T23:49:15.328Z,2.23
2022-12-04T23:51:42.410Z,2.25
2022-12-04T23:54:10.154Z,2.23
2022-12-04T23:56:37.694Z,2.22
2022-12-04T23:59:04.790Z,2.24
